Terminal Aerodrome Forecast
Issued by NWS

Home | Current Version | Previous Version | Text Only | Print | Product List | Glossary On
Versions: 1 2 3 4 5 6 7 8 9 10 11 12 13 14 15 16 17 18 19 20 21
446
FTUS41 KBGM 301720
TAFITH
TAF
KITH 301720Z 3018/3118 14005KT P6SM BKN080
     FM310000 13007KT P6SM -RA OVC035
     FM310300 14011KT 5SM -RA OVC020
     FM310500 14012KT 3SM -RA OVC015
     FM311100 14015G24KT 3SM -RA OVC008=

USA.gov is the U.S. government's official web portal to all federal, state and local government web resources and services.